createdAt,value
2018-12-17T00:01:16.277Z,14.93
2018-12-17T00:03:45.354Z,15.10
2018-12-17T00:06:14.521Z,13.20
2018-12-17T00:08:43.663Z,13.80
2018-12-17T00:11:12.799Z,14.80
2018-12-17T00:13:41.881Z,14.37
2018-12-17T00:16:10.976Z,14.30
2018-12-17T00:18:40.074Z,13.87
2018-12-17T00:21:09.195Z,15.30
2018-12-17T00:23:38.294Z,16.60
2018-12-17T00:26:07.408Z,13.17
2018-12-17T00:28:36.477Z,14.97
2018-12-17T00:31:05.601Z,14.97
2018-12-17T00:33:35.425Z,15.47
2018-12-17T00:36:04.575Z,16.30
2018-12-17T00:38:33.656Z,12.70
2018-12-17T00:41:02.775Z,13.97
2018-12-17T00:43:32.139Z,13.37
2018-12-17T00:46:01.273Z,17.87
2018-12-17T00:48:30.418Z,15.27
2018-12-17T00:50:59.504Z,15.37
2018-12-17T00:53:28.633Z,18.03
2018-12-17T00:55:57.739Z,16.10
2018-12-17T00:58:26.873Z,16.50
2018-12-17T01:00:55.997Z,16.87
2018-12-17T01:03:25.113Z,17.23
2018-12-17T01:05:54.206Z,15.60
2018-12-17T01:08:23.334Z,15.17
2018-12-17T01:10:52.447Z,13.83
2018-12-17T01:13:21.549Z,16.30
2018-12-17T01:15:50.653Z,15.70
2018-12-17T01:18:19.793Z,13.73
2018-12-17T01:20:48.919Z,14.90
2018-12-17T01:23:18.019Z,13.40
2018-12-17T01:25:47.129Z,15.93
2018-12-17T01:28:22.120Z,15.50
2018-12-17T01:30:48.074Z,14.77
2018-12-17T01:33:17.190Z,14.60
2018-12-17T01:35:46.298Z,15.40
2018-12-17T01:38:15.407Z,14.90
2018-12-17T01:40:44.533Z,14.30
2018-12-17T01:43:13.637Z,17.70
2018-12-17T01:45:42.742Z,14.70
2018-12-17T01:48:12.365Z,15.17
2018-12-17T01:50:41.552Z,15.60
2018-12-17T01:53:10.661Z,16.30
2018-12-17T01:55:39.782Z,16.67
2018-12-17T01:58:08.926Z,16.87
2018-12-17T02:00:38.029Z,16.50
2018-12-17T02:03:07.335Z,18.30
2018-12-17T02:05:36.428Z,16.73
2018-12-17T02:08:05.530Z,16.90
2018-12-17T02:10:34.626Z,16.00
2018-12-17T02:13:03.732Z,13.90
2018-12-17T02:15:32.853Z,16.70
2018-12-17T02:18:02.011Z,15.50
2018-12-17T02:20:31.098Z,15.87
2018-12-17T02:23:00.465Z,18.97
2018-12-17T02:25:29.578Z,15.43
2018-12-17T02:27:58.677Z,17.60
2018-12-17T02:30:27.772Z,14.77
2018-12-17T02:32:56.898Z,22.17
2018-12-17T02:35:26.011Z,16.20
2018-12-17T02:37:55.169Z,14.87
2018-12-17T02:40:24.769Z,15.33
2018-12-17T02:42:53.880Z,16.23
2018-12-17T02:45:23.007Z,16.00
2018-12-17T02:47:52.118Z,15.13
2018-12-17T02:50:21.236Z,16.77
2018-12-17T02:52:50.352Z,16.73
2018-12-17T02:55:19.445Z,21.30
2018-12-17T02:57:48.586Z,17.30
2018-12-17T03:00:17.692Z,16.43
2018-12-17T03:02:46.823Z,18.10
2018-12-17T03:05:15.934Z,15.63
2018-12-17T03:07:45.062Z,16.37
2018-12-17T03:10:14.155Z,15.00
2018-12-17T03:12:43.238Z,17.50
2018-12-17T03:15:12.326Z,14.10
2018-12-17T03:17:41.409Z,14.97
2018-12-17T03:20:10.511Z,16.40
2018-12-17T03:22:39.650Z,16.63
2018-12-17T03:25:08.740Z,18.07
2018-12-17T03:27:37.819Z,15.20
2018-12-17T03:30:07.333Z,15.47
2018-12-17T03:32:36.563Z,15.20
2018-12-17T03:35:05.705Z,14.93
2018-12-17T03:37:34.809Z,14.93
2018-12-17T03:40:03.930Z,12.97
2018-12-17T03:42:33.039Z,12.40
2018-12-17T03:45:02.136Z,15.30
2018-12-17T03:47:31.234Z,14.43
2018-12-17T03:50:00.391Z,16.67
2018-12-17T03:52:29.500Z,14.10
2018-12-17T03:54:58.573Z,16.63
2018-12-17T03:57:27.688Z,16.47
2018-12-17T03:59:56.784Z,21.37
2018-12-17T04:02:25.938Z,14.50
2018-12-17T04:04:55.290Z,17.70
2018-12-17T04:07:24.592Z,15.20
2018-12-17T04:09:53.711Z,19.27
2018-12-17T04:12:22.801Z,19.20
2018-12-17T04:14:51.929Z,19.60
2018-12-17T04:17:21.032Z,18.70
2018-12-17T04:19:50.139Z,16.27
2018-12-17T04:22:19.293Z,16.43
2018-12-17T04:24:48.402Z,18.80
2018-12-17T04:27:17.512Z,14.97
2018-12-17T04:29:46.606Z,15.17
2018-12-17T04:32:15.713Z,16.70
2018-12-17T04:34:44.836Z,17.90
2018-12-17T04:37:13.913Z,15.97
2018-12-17T04:39:43.011Z,16.10
2018-12-17T04:42:12.110Z,17.57
2018-12-17T04:44:41.261Z,19.23
2018-12-17T04:47:10.386Z,16.53
2018-12-17T04:49:39.522Z,17.63
2018-12-17T04:52:08.620Z,15.10
2018-12-17T04:54:37.742Z,17.20
2018-12-17T04:57:06.836Z,16.63
2018-12-17T04:59:35.959Z,18.30
2018-12-17T05:02:05.598Z,18.10
2018-12-17T05:04:34.772Z,17.17
2018-12-17T05:07:03.908Z,16.83
2018-12-17T05:09:33.045Z,17.87
2018-12-17T05:12:02.163Z,17.63
2018-12-17T05:14:31.280Z,18.97
2018-12-17T05:17:00.404Z,18.70
2018-12-17T05:19:29.505Z,17.30
2018-12-17T05:21:59.053Z,21.97
2018-12-17T05:24:28.158Z,19.60
2018-12-17T05:26:57.282Z,22.00
2018-12-17T05:29:26.402Z,20.97
2018-12-17T05:31:55.503Z,21.10
2018-12-17T05:34:24.632Z,21.27
2018-12-17T05:36:53.743Z,27.70
2018-12-17T05:39:22.863Z,26.80
2018-12-17T05:41:51.969Z,26.30
2018-12-17T05:44:21.070Z,26.87
2018-12-17T05:46:50.447Z,30.10
2018-12-17T05:49:19.598Z,28.00
2018-12-17T05:51:48.716Z,30.07
2018-12-17T05:54:17.888Z,30.40
2018-12-17T05:56:47.066Z,22.37
2018-12-17T05:59:16.674Z,21.10
2018-12-17T06:01:45.903Z,20.33
2018-12-17T06:04:15.112Z,18.87
2018-12-17T06:06:44.211Z,17.57
2018-12-17T06:09:13.947Z,18.80
2018-12-17T06:11:43.122Z,18.60
2018-12-17T06:14:12.224Z,16.47
2018-12-17T06:16:41.339Z,21.97
2018-12-17T06:19:10.463Z,19.80
2018-12-17T06:21:39.651Z,23.20
2018-12-17T06:24:08.725Z,21.20
2018-12-17T06:26:37.844Z,22.83
2018-12-17T06:29:06.958Z,23.13
2018-12-17T06:31:36.049Z,20.77
2018-12-17T06:34:05.160Z,30.60
2018-12-17T06:36:34.219Z,25.00
2018-12-17T06:39:04.727Z,23.70
2018-12-17T06:41:33.820Z,24.03
2018-12-17T06:44:02.939Z,22.33
2018-12-17T06:46:32.041Z,23.00
2018-12-17T06:49:01.130Z,23.90
2018-12-17T06:51:30.617Z,19.27
2018-12-17T06:53:59.714Z,21.90
2018-12-17T06:56:28.808Z,21.30
2018-12-17T06:58:57.889Z,19.17
2018-12-17T07:01:28.172Z,27.07
2018-12-17T07:03:57.543Z,22.50
2018-12-17T07:06:27.293Z,22.50
2018-12-17T07:08:56.436Z,25.23
2018-12-17T07:11:25.972Z,31.50
2018-12-17T07:13:55.092Z,27.23
2018-12-17T07:16:24.189Z,25.60
2018-12-17T07:18:54.315Z,26.87
2018-12-17T07:21:23.455Z,26.43
2018-12-17T07:23:52.542Z,25.80
2018-12-17T07:26:21.631Z,27.90
2018-12-17T07:28:50.750Z,27.67
2018-12-17T07:31:19.902Z,25.90
2018-12-17T07:33:49.008Z,26.30
2018-12-17T07:36:18.216Z,26.70
2018-12-17T07:38:47.348Z,23.93
2018-12-17T07:41:16.462Z,25.77
2018-12-17T07:43:45.607Z,28.47
2018-12-17T07:46:14.716Z,27.10
2018-12-17T07:48:43.821Z,26.57
2018-12-17T07:51:12.917Z,24.43
2018-12-17T07:53:42.028Z,23.30
2018-12-17T07:56:11.121Z,30.90
2018-12-17T07:58:40.217Z,27.90
2018-12-17T08:01:09.321Z,28.63
2018-12-17T08:03:38.402Z,30.30
2018-12-17T08:06:07.514Z,30.73
2018-12-17T08:08:36.610Z,30.00
2018-12-17T08:11:05.704Z,30.57
2018-12-17T08:13:34.813Z,29.47
2018-12-17T08:16:03.982Z,28.10
2018-12-17T08:18:33.086Z,25.47
2018-12-17T08:21:02.201Z,26.23
2018-12-17T08:23:31.309Z,24.10
2018-12-17T08:26:00.452Z,25.17
2018-12-17T08:28:29.577Z,25.10
2018-12-17T08:30:58.712Z,22.60
2018-12-17T08:33:27.781Z,26.60
2018-12-17T08:35:57.067Z,27.70
2018-12-17T08:38:26.171Z,22.87
2018-12-17T08:40:55.259Z,21.90
2018-12-17T08:43:24.360Z,21.77
2018-12-17T08:45:53.476Z,25.53
2018-12-17T08:48:22.584Z,24.63
2018-12-17T08:50:51.687Z,22.50
2018-12-17T08:53:20.805Z,25.53
2018-12-17T08:55:50.006Z,32.33
2018-12-17T08:58:19.286Z,36.37
2018-12-17T09:00:48.446Z,33.03
2018-12-17T09:03:17.547Z,28.17
2018-12-17T09:05:46.669Z,29.03
2018-12-17T09:08:15.767Z,31.70
2018-12-17T09:10:44.912Z,29.27
2018-12-17T09:13:14.089Z,29.20
2018-12-17T09:15:43.269Z,31.53
2018-12-17T09:18:12.360Z,29.70
2018-12-17T09:20:41.470Z,24.27
2018-12-17T09:23:10.601Z,28.70
2018-12-17T09:25:39.816Z,25.73
2018-12-17T09:28:08.941Z,25.83
2018-12-17T09:30:41.277Z,26.33
2018-12-17T09:33:09.204Z,25.57
2018-12-17T09:35:38.364Z,27.40
2018-12-17T09:38:07.485Z,27.27
2018-12-17T09:40:36.593Z,27.17
2018-12-17T09:43:05.688Z,28.33
2018-12-17T09:45:34.882Z,25.37
2018-12-17T09:48:03.982Z,32.10
2018-12-17T09:50:33.121Z,25.27
2018-12-17T09:53:02.256Z,23.03
2018-12-17T09:55:31.379Z,23.80
2018-12-17T09:58:00.473Z,33.20
2018-12-17T10:00:29.622Z,27.87
2018-12-17T10:02:58.698Z,24.77
2018-12-17T10:05:27.833Z,22.30
2018-12-17T10:07:57.856Z,23.73
2018-12-17T10:10:26.969Z,21.10
2018-12-17T10:12:56.094Z,23.83
2018-12-17T10:15:25.211Z,20.40
2018-12-17T10:17:54.312Z,24.40
2018-12-17T10:20:23.490Z,29.43
2018-12-17T10:22:52.584Z,31.30
2018-12-17T10:25:21.693Z,31.93
2018-12-17T10:27:50.813Z,31.70
2018-12-17T10:30:19.915Z,42.07
2018-12-17T10:32:49.061Z,37.10
2018-12-17T10:35:18.184Z,33.50
2018-12-17T10:37:47.327Z,32.03
2018-12-17T10:40:16.473Z,28.17
2018-12-17T10:42:45.609Z,25.23
2018-12-17T10:45:14.725Z,26.37
2018-12-17T10:47:43.833Z,25.37
2018-12-17T10:50:12.933Z,30.70
2018-12-17T10:52:42.025Z,26.57
2018-12-17T10:55:11.135Z,25.43
2018-12-17T10:57:40.249Z,28.10
2018-12-17T11:00:14.262Z,29.20
2018-12-17T11:02:43.409Z,27.23
2018-12-17T11:05:15.138Z,25.27
2018-12-17T11:07:44.266Z,30.20
2018-12-17T11:10:13.393Z,29.80
2018-12-17T11:15:26.020Z,34.70
2018-12-17T11:17:55.131Z,39.43
2018-12-17T11:20:24.648Z,30.17
2018-12-17T11:22:54.001Z,26.43
2018-12-17T11:25:23.090Z,25.30
2018-12-17T11:27:52.284Z,27.00
2018-12-17T11:30:21.377Z,29.43
2018-12-17T11:32:50.480Z,20.80
2018-12-17T11:35:19.585Z,24.70
2018-12-17T11:37:48.709Z,26.07
2018-12-17T11:40:17.833Z,35.73
2018-12-17T11:42:46.957Z,28.40
2018-12-17T11:45:16.101Z,26.23
2018-12-17T11:47:45.197Z,25.47
2018-12-17T11:50:14.346Z,27.83
2018-12-17T11:52:43.592Z,26.27
2018-12-17T11:55:12.705Z,34.13
2018-12-17T11:57:55.078Z,30.00
2018-12-17T12:00:26.174Z,28.23
2018-12-17T12:02:59.109Z,25.57
2018-12-17T12:06:29.634Z,24.87
2018-12-17T12:08:58.757Z,27.70
2018-12-17T12:11:27.908Z,31.00
2018-12-17T12:13:57.013Z,31.87
2018-12-17T12:16:26.138Z,31.53
2018-12-17T12:18:55.341Z,29.50
2018-12-17T12:21:24.495Z,34.50
2018-12-17T12:23:53.602Z,30.87
2018-12-17T12:26:22.796Z,30.73
2018-12-17T12:28:51.895Z,31.60
2018-12-17T12:31:21.036Z,44.90
2018-12-17T12:33:50.200Z,43.90
2018-12-17T12:36:21.838Z,34.60
2018-12-17T12:38:50.952Z,33.20
2018-12-17T12:41:20.234Z,28.87
2018-12-17T12:43:49.330Z,33.90
2018-12-17T12:46:20.770Z,42.77
2018-12-17T12:48:49.883Z,46.63
2018-12-17T12:51:19.140Z,40.20
2018-12-17T12:53:48.246Z,39.20
2018-12-17T12:56:17.391Z,37.67
2018-12-17T12:58:46.597Z,28.83
2018-12-17T13:01:15.757Z,35.90
2018-12-17T13:03:44.867Z,36.40
2018-12-17T13:06:13.991Z,33.67
2018-12-17T13:08:43.087Z,31.13
2018-12-17T13:11:12.222Z,42.03
2018-12-17T13:13:41.329Z,42.03
2018-12-17T13:16:10.471Z,45.97
2018-12-17T13:18:39.564Z,36.73
2018-12-17T13:21:08.674Z,33.40
2018-12-17T13:23:37.833Z,35.27
2018-12-17T13:26:06.964Z,39.97
2018-12-17T13:28:36.080Z,37.20
2018-12-17T13:31:05.213Z,40.73
2018-12-17T13:33:34.325Z,32.60
2018-12-17T13:36:04.202Z,36.37
2018-12-17T13:38:33.325Z,40.07
2018-12-17T13:41:02.463Z,39.93
2018-12-17T13:43:31.565Z,277.63
2018-12-17T13:46:00.746Z,195.13
2018-12-17T13:48:29.908Z,54.27
2018-12-17T13:51:03.036Z,41.60
2018-12-17T13:53:33.036Z,27.67
2018-12-17T13:56:02.279Z,27.10
2018-12-17T13:58:31.424Z,33.40
2018-12-17T14:01:00.522Z,30.20
2018-12-17T14:03:29.682Z,30.40
2018-12-17T14:05:58.904Z,35.63
2018-12-17T14:08:28.034Z,33.50
2018-12-17T14:10:57.916Z,38.10
2018-12-17T14:13:27.045Z,34.87
2018-12-17T14:16:01.242Z,26.80
2018-12-17T14:18:35.347Z,25.33
2018-12-17T14:21:09.545Z,27.90
2018-12-17T14:23:38.662Z,25.70
2018-12-17T14:26:07.785Z,27.87
2018-12-17T14:28:36.934Z,32.50
2018-12-17T14:31:06.032Z,26.97
2018-12-17T14:33:35.117Z,29.50
2018-12-17T14:36:09.222Z,26.10
2018-12-17T14:38:39.534Z,32.50
2018-12-17T14:41:08.660Z,34.73
2018-12-17T14:43:37.768Z,34.63
2018-12-17T14:46:06.865Z,34.03
2018-12-17T14:48:35.998Z,27.30
2018-12-17T14:51:05.100Z,41.13
2018-12-17T14:53:34.216Z,43.10
2018-12-17T14:56:03.338Z,41.10
2018-12-17T14:58:32.544Z,37.33
2018-12-17T15:01:01.692Z,34.67
2018-12-17T15:03:30.798Z,30.40
2018-12-17T15:05:59.917Z,34.20
2018-12-17T15:08:29.008Z,36.77
2018-12-17T15:10:58.131Z,39.07
2018-12-17T15:13:27.270Z,34.10
2018-12-17T15:15:56.376Z,44.47
2018-12-17T15:18:25.523Z,35.63
2018-12-17T15:20:54.658Z,40.63
2018-12-17T15:23:23.861Z,40.73
2018-12-17T15:25:52.962Z,42.50
2018-12-17T15:28:22.068Z,44.30
2018-12-17T15:30:51.170Z,43.47
2018-12-17T15:33:20.317Z,41.03
2018-12-17T15:35:49.485Z,46.10
2018-12-17T15:38:18.594Z,41.03
2018-12-17T15:40:47.726Z,42.97
2018-12-17T15:43:16.853Z,39.20
2018-12-17T15:45:46.024Z,37.47
2018-12-17T15:48:15.132Z,44.67
2018-12-17T15:50:44.229Z,39.00
2018-12-17T15:53:13.384Z,38.73
2018-12-17T15:55:42.483Z,34.10
2018-12-17T15:58:11.573Z,38.97
2018-12-17T16:00:40.659Z,42.30
2018-12-17T16:03:09.754Z,30.40
2018-12-17T16:05:38.864Z,36.33
2018-12-17T16:08:07.948Z,40.30
2018-12-17T16:10:37.082Z,45.40
2018-12-17T16:13:06.205Z,48.60
2018-12-17T16:15:35.452Z,47.60
2018-12-17T16:18:04.533Z,44.30
2018-12-17T16:20:33.637Z,44.63
2018-12-17T16:23:02.786Z,50.13
2018-12-17T16:25:31.888Z,44.10
2018-12-17T16:28:01.017Z,46.40
2018-12-17T16:30:30.117Z,37.30
2018-12-17T16:32:59.271Z,34.70
2018-12-17T16:35:28.469Z,44.73
2018-12-17T16:37:57.625Z,36.30
2018-12-17T16:40:26.957Z,38.80
2018-12-17T16:42:56.138Z,39.40
2018-12-17T16:45:25.635Z,34.53
2018-12-17T16:47:54.745Z,74.80
2018-12-17T16:50:23.841Z,44.17
2018-12-17T16:52:53.012Z,55.47
2018-12-17T16:55:22.209Z,51.13
2018-12-17T16:57:51.341Z,54.17
2018-12-17T17:00:21.420Z,44.00
2018-12-17T17:02:50.617Z,46.57
2018-12-17T17:05:19.710Z,48.83
2018-12-17T17:07:50.367Z,45.60
2018-12-17T17:10:19.491Z,44.60
2018-12-17T17:12:48.890Z,53.90
2018-12-17T17:15:18.045Z,50.90
2018-12-17T17:17:47.178Z,52.97
2018-12-17T17:20:16.320Z,50.00
2018-12-17T17:22:45.411Z,44.53
2018-12-17T17:25:14.544Z,46.30
2018-12-17T17:27:43.668Z,44.30
2018-12-17T17:30:12.845Z,44.27
2018-12-17T17:32:41.937Z,42.80
2018-12-17T17:35:11.097Z,39.30
2018-12-17T17:37:40.196Z,46.50
2018-12-17T17:40:09.317Z,49.33
2018-12-17T17:42:38.430Z,43.03
2018-12-17T17:45:07.570Z,43.30
2018-12-17T17:47:36.775Z,44.67
2018-12-17T17:50:06.610Z,40.47
2018-12-17T17:52:35.869Z,34.70
2018-12-17T17:55:05.254Z,41.00
2018-12-17T17:57:34.363Z,39.93
2018-12-17T18:00:03.481Z,39.30
2018-12-17T18:02:32.633Z,36.97
2018-12-17T18:05:01.776Z,39.27
2018-12-17T18:07:30.869Z,42.60
2018-12-17T18:10:00.025Z,38.50
2018-12-17T18:12:30.003Z,38.60
2018-12-17T18:14:59.209Z,39.40
2018-12-17T18:17:28.942Z,34.70
2018-12-17T18:19:58.092Z,38.07
2018-12-17T18:22:27.218Z,41.70
2018-12-17T18:24:57.877Z,38.37
2018-12-17T18:27:27.611Z,49.80
2018-12-17T18:29:57.073Z,40.80
2018-12-17T18:32:28.061Z,42.27
2018-12-17T18:34:57.983Z,35.17
2018-12-17T18:37:27.091Z,37.20
2018-12-17T18:39:56.192Z,36.80
2018-12-17T18:42:25.274Z,32.10
2018-12-17T18:44:54.388Z,32.30
2018-12-17T18:47:25.891Z,35.67
2018-12-17T18:49:54.752Z,29.70
2018-12-17T18:52:23.863Z,28.20
2018-12-17T18:54:52.985Z,32.70
2018-12-17T18:57:22.197Z,37.40
2018-12-17T18:59:51.345Z,30.20
2018-12-17T19:02:20.433Z,33.50
2018-12-17T19:04:49.565Z,34.13
2018-12-17T19:07:18.717Z,36.87
2018-12-17T19:09:47.833Z,35.67
2018-12-17T19:12:16.949Z,34.50
2018-12-17T19:14:46.038Z,44.30
2018-12-17T19:17:15.176Z,37.17
2018-12-17T19:19:44.271Z,36.03
2018-12-17T19:22:13.371Z,35.67
2018-12-17T19:24:45.230Z,35.67
2018-12-17T19:27:15.375Z,45.37
2018-12-17T19:29:44.505Z,36.40
2018-12-17T19:32:13.611Z,35.13
2018-12-17T19:34:42.763Z,47.17
2018-12-17T19:37:14.129Z,44.30
2018-12-17T19:39:44.783Z,41.37
2018-12-17T19:42:14.437Z,37.87
2018-12-17T19:44:43.594Z,48.93
2018-12-17T19:47:12.690Z,43.50
2018-12-17T19:49:41.886Z,42.30
2018-12-17T19:52:11.050Z,36.87
2018-12-17T19:54:40.157Z,37.67
2018-12-17T19:57:09.243Z,33.50
2018-12-17T19:59:38.348Z,40.23
2018-12-17T20:02:07.016Z,41.60
2018-12-17T20:04:36.161Z,36.00
2018-12-17T20:07:05.251Z,31.57
2018-12-17T20:09:34.451Z,31.30
2018-12-17T20:12:03.527Z,31.47
2018-12-17T20:14:32.626Z,29.73
2018-12-17T20:17:01.778Z,34.20
2018-12-17T20:19:32.081Z,33.23
2018-12-17T20:22:02.350Z,35.17
2018-12-17T20:24:31.486Z,30.60
2018-12-17T20:27:00.605Z,27.27
2018-12-17T20:29:29.748Z,27.50
2018-12-17T20:31:58.836Z,43.17
2018-12-17T20:34:27.975Z,29.93
2018-12-17T20:36:57.094Z,24.50
2018-12-17T20:39:26.208Z,27.10
2018-12-17T20:41:55.374Z,26.03
2018-12-17T20:44:24.510Z,25.73
2018-12-17T20:46:53.624Z,27.60
2018-12-17T20:49:22.728Z,24.50
2018-12-17T20:51:51.949Z,26.47
2018-12-17T20:54:21.100Z,26.47
2018-12-17T20:56:50.191Z,25.80
2018-12-17T20:59:19.297Z,26.87
2018-12-17T21:01:48.409Z,28.90
2018-12-17T21:04:17.502Z,28.60
2018-12-17T21:06:49.936Z,27.90
2018-12-17T21:09:17.782Z,26.17
2018-12-17T21:11:46.890Z,24.40
2018-12-17T21:14:16.019Z,25.03
2018-12-17T21:16:45.148Z,25.10
2018-12-17T21:19:14.272Z,23.37
2018-12-17T21:21:43.369Z,22.20
2018-12-17T21:24:12.493Z,26.17
2018-12-17T21:26:41.588Z,23.17
2018-12-17T21:29:10.680Z,21.30
2018-12-17T21:31:39.762Z,21.03
2018-12-17T21:34:08.861Z,20.43
2018-12-17T21:36:37.982Z,22.47
2018-12-17T21:39:08.137Z,20.60
2018-12-17T21:41:37.222Z,18.60
2018-12-17T21:44:06.312Z,18.33
2018-12-17T21:46:35.403Z,16.90
2018-12-17T21:49:04.506Z,19.30
2018-12-17T21:51:33.600Z,17.03
2018-12-17T21:54:02.689Z,18.37
2018-12-17T21:56:32.057Z,18.80
2018-12-17T21:59:01.155Z,18.93
2018-12-17T22:01:30.243Z,18.30
2018-12-17T22:03:59.329Z,17.57
2018-12-17T22:06:28.422Z,20.17
2018-12-17T22:08:57.538Z,19.80
2018-12-17T22:11:26.655Z,24.87
2018-12-17T22:13:55.753Z,22.83
2018-12-17T22:16:24.869Z,26.37
2018-12-17T22:18:53.953Z,22.80
2018-12-17T22:21:23.044Z,21.53
2018-12-17T22:23:52.153Z,23.63
2018-12-17T22:26:21.237Z,21.73
2018-12-17T22:28:50.332Z,22.60
2018-12-17T22:31:19.414Z,23.37
2018-12-17T22:33:48.526Z,22.57
2018-12-17T22:36:17.636Z,20.70
2018-12-17T22:38:46.716Z,21.93
2018-12-17T22:41:15.809Z,19.90
2018-12-17T22:43:44.908Z,20.87
2018-12-17T22:46:14.025Z,17.73
2018-12-17T22:48:43.148Z,21.57
2018-12-17T22:51:12.224Z,20.87
2018-12-17T22:53:41.320Z,20.73
2018-12-17T22:56:10.432Z,24.73
2018-12-17T22:58:42.543Z,26.17
2018-12-17T23:01:10.683Z,23.20
2018-12-17T23:03:39.787Z,18.37
2018-12-17T23:06:08.904Z,17.50
2018-12-17T23:08:41.908Z,17.63
2018-12-17T23:11:21.934Z,20.50
2018-12-17T23:14:01.797Z,20.70
2018-12-17T23:16:41.526Z,18.87
2018-12-17T23:19:09.677Z,21.37
2018-12-17T23:21:38.804Z,21.30
2018-12-17T23:24:08.002Z,22.50
2018-12-17T23:26:37.112Z,24.07
2018-12-17T23:29:06.211Z,22.27
2018-12-17T23:31:35.356Z,19.80
2018-12-17T23:34:04.429Z,21.20
2018-12-17T23:36:33.556Z,22.17
2018-12-17T23:39:02.748Z,23.27
2018-12-17T23:41:31.849Z,22.63
2018-12-17T23:44:00.945Z,21.80
2018-12-17T23:46:30.057Z,23.30
2018-12-17T23:48:59.153Z,21.40
2018-12-17T23:51:28.244Z,22.30
2018-12-17T23:53:57.334Z,24.77
2018-12-17T23:56:26.476Z,24.40
2018-12-17T23:58:55.569Z,24.20
